createdAt,value
2018-07-12T00:02:04.773Z,17.00
2018-07-12T00:04:32.115Z,17.10
2018-07-12T00:06:59.410Z,17.10
2018-07-12T00:09:26.729Z,17.10
2018-07-12T00:11:54.224Z,17.00
2018-07-12T00:14:21.557Z,17.00
2018-07-12T00:16:48.867Z,17.10
2018-07-12T00:19:16.166Z,17.10
2018-07-12T00:21:43.472Z,17.10
2018-07-12T00:24:10.825Z,17.20
2018-07-12T00:26:38.152Z,17.20
2018-07-12T00:29:05.463Z,17.20
2018-07-12T00:31:32.799Z,17.10
2018-07-12T00:34:00.156Z,17.00
2018-07-12T00:36:27.474Z,17.00
2018-07-12T00:38:54.832Z,17.10
2018-07-12T00:41:22.131Z,17.10
2018-07-12T00:43:49.706Z,17.10
2018-07-12T00:46:17.426Z,17.10
2018-07-12T00:48:44.730Z,17.00
2018-07-12T00:51:12.015Z,17.00
2018-07-12T00:53:39.392Z,17.00
2018-07-12T00:56:06.839Z,17.00
2018-07-12T00:58:34.144Z,17.00
2018-07-12T01:01:01.473Z,17.10
2018-07-12T01:03:28.767Z,17.10
2018-07-12T01:05:56.077Z,17.10
2018-07-12T01:08:23.497Z,17.00
2018-07-12T01:10:50.819Z,17.00
2018-07-12T01:13:18.152Z,17.10
2018-07-12T01:15:45.447Z,17.10
2018-07-12T01:18:12.742Z,17.20
2018-07-12T01:20:40.253Z,17.10
2018-07-12T01:23:07.531Z,17.00
2018-07-12T01:25:34.855Z,17.00
2018-07-12T01:28:02.129Z,17.00
2018-07-12T01:30:29.424Z,16.90
2018-07-12T01:32:56.797Z,16.90
2018-07-12T01:35:24.077Z,16.90
2018-07-12T01:37:51.392Z,16.80
2018-07-12T01:40:18.692Z,16.80
2018-07-12T01:42:46.013Z,16.90
2018-07-12T01:45:13.491Z,16.90
2018-07-12T01:47:40.806Z,17.00
2018-07-12T01:50:08.120Z,17.00
2018-07-12T01:52:35.425Z,17.00
2018-07-12T01:55:02.715Z,16.80
2018-07-12T01:57:30.011Z,16.70
2018-07-12T01:59:57.320Z,16.70
2018-07-12T02:02:24.615Z,16.70
2018-07-12T02:04:51.925Z,16.60
2018-07-12T02:07:19.219Z,16.60
2018-07-12T02:09:46.514Z,16.70
2018-07-12T02:12:13.819Z,16.70
2018-07-12T02:14:41.126Z,16.60
2018-07-12T02:17:08.420Z,16.60
2018-07-12T02:19:35.739Z,16.60
2018-07-12T02:22:03.067Z,16.70
2018-07-12T02:24:30.466Z,16.70
2018-07-12T02:26:57.771Z,16.60
2018-07-12T02:29:25.206Z,16.60
2018-07-12T02:31:52.530Z,16.70
2018-07-12T02:34:19.820Z,16.70
2018-07-12T02:36:47.144Z,16.70
2018-07-12T02:39:14.484Z,16.70
2018-07-12T02:41:41.809Z,16.60
2018-07-12T02:44:09.103Z,16.50
2018-07-12T02:46:36.489Z,16.50
2018-07-12T02:49:03.803Z,16.50
2018-07-12T02:51:31.088Z,16.50
2018-07-12T02:53:58.392Z,16.60
2018-07-12T02:56:25.670Z,16.60
2018-07-12T02:58:52.982Z,16.50
2018-07-12T03:01:20.275Z,16.40
2018-07-12T03:03:47.584Z,16.30
2018-07-12T03:06:14.882Z,16.20
2018-07-12T03:08:42.189Z,16.20
2018-07-12T03:11:09.573Z,16.30
2018-07-12T03:13:37.087Z,16.30
2018-07-12T03:16:04.376Z,16.30
2018-07-12T03:18:31.700Z,16.20
2018-07-12T03:20:59.217Z,16.20
2018-07-12T03:23:26.506Z,16.20
2018-07-12T03:25:53.821Z,16.20
2018-07-12T03:28:21.118Z,16.10
2018-07-12T03:30:48.419Z,16.00
2018-07-12T03:33:15.708Z,15.90
2018-07-12T03:35:43.049Z,16.00
2018-07-12T03:38:10.367Z,16.00
2018-07-12T03:40:37.740Z,16.00
2018-07-12T03:43:05.186Z,16.00
2018-07-12T03:45:32.496Z,16.00
2018-07-12T03:47:59.795Z,16.10
2018-07-12T03:50:27.100Z,16.20
2018-07-12T03:52:54.446Z,16.10
2018-07-12T03:55:21.763Z,16.10
2018-07-12T03:57:49.095Z,16.10
2018-07-12T04:00:16.382Z,16.00
2018-07-12T04:02:43.688Z,16.10
2018-07-12T04:05:10.984Z,16.10
2018-07-12T04:07:38.304Z,16.00
2018-07-12T04:10:05.617Z,16.10
2018-07-12T04:12:32.923Z,16.20
2018-07-12T04:15:00.247Z,16.20
2018-07-12T04:17:31.442Z,16.20
2018-07-12T04:19:59.848Z,16.10
2018-07-12T04:22:28.332Z,16.00
2018-07-12T04:24:55.642Z,16.00
2018-07-12T04:27:23.252Z,16.10
2018-07-12T04:29:51.728Z,16.00
2018-07-12T04:32:19.164Z,16.10
2018-07-12T04:34:47.326Z,16.20
2018-07-12T04:37:14.854Z,16.00
2018-07-12T04:39:42.229Z,15.90
2018-07-12T04:42:09.550Z,16.00
2018-07-12T04:44:36.920Z,16.00
2018-07-12T04:47:04.261Z,16.10
2018-07-12T04:49:31.572Z,16.10
2018-07-12T04:51:59.693Z,16.10
2018-07-12T04:54:27.491Z,16.20
2018-07-12T04:56:54.818Z,16.20
2018-07-12T04:59:22.396Z,16.10
2018-07-12T05:01:50.027Z,16.10
2018-07-12T05:04:17.413Z,16.20
2018-07-12T05:06:44.730Z,16.20
2018-07-12T05:09:12.099Z,16.20
2018-07-12T05:11:39.425Z,16.10
2018-07-12T05:14:06.718Z,16.10
2018-07-12T05:16:34.028Z,16.10
2018-07-12T05:19:01.322Z,16.30
2018-07-12T05:21:28.672Z,16.40
2018-07-12T05:23:56.008Z,16.40
2018-07-12T05:26:23.319Z,16.40
2018-07-12T05:28:50.621Z,16.40
2018-07-12T05:31:17.930Z,16.50
2018-07-12T05:33:45.239Z,16.40
2018-07-12T05:36:25.397Z,16.30
2018-07-12T05:38:53.925Z,16.40
2018-07-12T05:41:22.531Z,16.60
2018-07-12T05:43:51.091Z,16.70
2018-07-12T05:46:19.512Z,16.70
2018-07-12T05:48:48.021Z,16.60
2018-07-12T05:51:16.530Z,16.50
2018-07-12T05:53:45.058Z,16.50
2018-07-12T05:56:13.515Z,16.30
2018-07-12T05:58:41.980Z,16.50
2018-07-12T06:01:21.536Z,16.70
2018-07-12T06:03:50.014Z,16.60
2018-07-12T06:06:18.543Z,16.50
2018-07-12T06:08:47.188Z,16.30
2018-07-12T06:11:15.618Z,16.20
2018-07-12T06:13:44.251Z,16.20
2018-07-12T06:16:12.791Z,16.30
2018-07-12T06:18:41.389Z,16.40
2018-07-12T06:21:11.278Z,16.50
2018-07-12T06:23:39.719Z,16.70
2018-07-12T06:26:08.209Z,16.80
2018-07-12T06:28:36.699Z,16.90
2018-07-12T06:31:05.242Z,16.80
2018-07-12T06:33:33.672Z,16.20
2018-07-12T06:36:02.167Z,16.70
2018-07-12T06:38:30.680Z,16.80
2018-07-12T06:40:59.966Z,16.90
2018-07-12T06:43:28.420Z,17.00
2018-07-12T06:45:57.330Z,17.50
2018-07-12T06:48:25.800Z,17.50
2018-07-12T06:50:54.221Z,17.30
2018-07-12T06:53:22.669Z,17.20
2018-07-12T06:55:51.078Z,17.40
2018-07-12T06:58:19.578Z,17.50
2018-07-12T07:00:48.018Z,17.20
2018-07-12T07:03:16.478Z,17.30
2018-07-12T07:05:44.882Z,17.10
2018-07-12T07:08:13.376Z,17.20
2018-07-12T07:10:41.812Z,17.30
2018-07-12T07:13:10.306Z,17.40
2018-07-12T07:15:39.086Z,17.40
2018-07-12T07:18:07.597Z,17.30
2018-07-12T07:20:36.037Z,17.20
2018-07-12T07:23:04.469Z,17.30
2018-07-12T07:25:32.940Z,17.20
2018-07-12T07:28:01.551Z,17.10
2018-07-12T07:30:30.069Z,17.00
2018-07-12T07:32:58.519Z,17.10
2018-07-12T07:35:26.984Z,17.40
2018-07-12T07:37:55.478Z,17.30
2018-07-12T07:40:24.131Z,17.40
2018-07-12T07:42:52.644Z,17.30
2018-07-12T07:45:21.270Z,17.20
2018-07-12T07:47:49.687Z,17.20
2018-07-12T07:50:18.148Z,17.60
2018-07-12T07:52:46.627Z,17.80
2018-07-12T07:55:15.065Z,17.90
2018-07-12T07:57:43.545Z,17.80
2018-07-12T08:00:11.977Z,18.10
2018-07-12T08:02:40.432Z,18.00
2018-07-12T08:05:08.939Z,17.80
2018-07-12T08:07:37.375Z,17.70
2018-07-12T08:10:05.835Z,17.60
2018-07-12T08:12:34.350Z,17.60
2018-07-12T08:15:02.802Z,17.50
2018-07-12T08:17:31.226Z,17.50
2018-07-12T08:19:59.654Z,18.00
2018-07-12T08:22:28.103Z,18.50
2018-07-12T08:24:56.552Z,18.60
2018-07-12T08:27:24.995Z,18.50
2018-07-12T08:29:53.450Z,18.50
2018-07-12T08:32:22.097Z,18.80
2018-07-12T08:34:50.530Z,18.80
2018-07-12T08:37:19.041Z,18.30
2018-07-12T08:39:47.485Z,18.00
2018-07-12T08:42:15.910Z,18.10
2018-07-12T08:44:44.488Z,18.50
2018-07-12T08:47:12.958Z,18.90
2018-07-12T08:49:41.463Z,19.00
2018-07-12T08:52:09.987Z,19.70
2018-07-12T08:54:38.590Z,19.60
2018-07-12T08:57:07.240Z,19.10
2018-07-12T08:59:35.736Z,18.60
2018-07-12T09:02:04.210Z,18.80
2018-07-12T09:04:32.689Z,18.90
2018-07-12T09:07:01.315Z,18.90
2018-07-12T09:09:29.793Z,19.30
2018-07-12T09:11:58.289Z,19.50
2018-07-12T09:14:26.730Z,19.90
2018-07-12T09:16:55.197Z,21.10
2018-07-12T09:19:23.728Z,20.30
2018-07-12T09:21:52.350Z,19.70
2018-07-12T09:24:20.859Z,19.50
2018-07-12T09:26:49.392Z,20.10
2018-07-12T09:29:17.911Z,20.90
2018-07-12T09:31:48.579Z,21.80
2018-07-12T09:34:17.044Z,21.80
2018-07-12T09:36:45.516Z,21.40
2018-07-12T09:39:13.972Z,20.50
2018-07-12T09:41:42.451Z,20.00
2018-07-12T09:44:10.971Z,19.60
2018-07-12T09:46:39.428Z,19.50
2018-07-12T09:49:08.014Z,19.90
2018-07-12T09:51:36.654Z,19.90
2018-07-12T09:54:05.135Z,20.00
2018-07-12T09:56:44.713Z,20.60
2018-07-12T09:59:13.329Z,21.80
2018-07-12T10:01:46.987Z,22.40
2018-07-12T10:04:15.445Z,21.10
2018-07-12T10:06:49.259Z,20.60
2018-07-12T10:09:22.959Z,20.50
2018-07-12T10:11:56.621Z,20.30
2018-07-12T10:14:30.702Z,20.70
2018-07-12T10:17:04.411Z,20.70
2018-07-12T10:19:32.907Z,21.00
2018-07-12T10:22:01.389Z,21.00
2018-07-12T10:24:29.798Z,21.60
2018-07-12T10:26:58.435Z,22.20
2018-07-12T10:29:26.905Z,21.80
2018-07-12T10:31:55.428Z,21.40
2018-07-12T10:34:23.950Z,21.50
2018-07-12T10:36:53.688Z,22.10
2018-07-12T10:39:22.191Z,22.60
2018-07-12T10:41:50.774Z,22.00
2018-07-12T10:44:19.269Z,21.70
2018-07-12T10:46:47.920Z,21.40
2018-07-12T10:49:16.612Z,21.30
2018-07-12T10:51:45.050Z,21.70
2018-07-12T10:54:13.514Z,22.40
2018-07-12T10:56:41.960Z,22.10
2018-07-12T10:59:10.468Z,21.90
2018-07-12T11:01:38.932Z,21.60
2018-07-12T11:04:07.357Z,22.00
2018-07-12T11:06:35.788Z,21.50
2018-07-12T11:09:05.664Z,21.40
2018-07-12T11:11:34.275Z,21.50
2018-07-12T11:14:03.144Z,22.10
2018-07-12T11:16:31.640Z,22.80
2018-07-12T11:19:00.059Z,24.10
2018-07-12T11:21:28.508Z,25.00
2018-07-12T11:23:56.980Z,24.20
2018-07-12T11:26:25.422Z,23.10
2018-07-12T11:28:53.848Z,22.70
2018-07-12T11:31:22.282Z,22.40
2018-07-12T11:33:51.459Z,22.10
2018-07-12T11:36:19.997Z,21.90
2018-07-12T11:38:48.697Z,22.20
2018-07-12T11:41:17.513Z,22.70
2018-07-12T11:43:46.267Z,23.30
2018-07-12T11:46:16.056Z,23.70
2018-07-12T11:48:45.370Z,23.60
2018-07-12T11:51:13.835Z,23.00
2018-07-12T11:53:42.307Z,23.00
2018-07-12T11:56:10.751Z,22.90
2018-07-12T11:58:39.249Z,22.40
2018-07-12T12:01:08.089Z,22.40
2018-07-12T12:03:36.602Z,22.60
2018-07-12T12:06:05.073Z,22.60
2018-07-12T12:08:33.523Z,23.20
2018-07-12T12:11:01.948Z,23.80
2018-07-12T12:13:30.408Z,23.70
2018-07-12T12:15:58.864Z,24.50
2018-07-12T12:18:27.279Z,24.70
2018-07-12T12:20:55.698Z,24.20
2018-07-12T12:23:24.148Z,23.40
2018-07-12T12:25:52.582Z,23.40
2018-07-12T12:28:22.989Z,23.30
2018-07-12T12:30:51.558Z,22.90
2018-07-12T12:33:19.987Z,23.30
2018-07-12T12:35:48.451Z,24.60
2018-07-12T12:38:16.891Z,25.60
2018-07-12T12:40:45.402Z,25.10
2018-07-12T12:43:13.851Z,25.30
2018-07-12T12:45:42.290Z,25.50
2018-07-12T12:48:10.751Z,25.80
2018-07-12T12:50:39.545Z,25.80
2018-07-12T12:53:07.976Z,24.90
2018-07-12T12:55:36.440Z,24.80
2018-07-12T12:58:05.030Z,25.30
2018-07-12T13:00:35.701Z,26.30
2018-07-12T13:03:04.220Z,26.90
2018-07-12T13:05:32.797Z,27.10
2018-07-12T13:08:01.291Z,26.90
2018-07-12T13:10:29.929Z,27.00
2018-07-12T13:12:58.377Z,26.10
2018-07-12T13:15:26.906Z,26.40
2018-07-12T13:17:55.412Z,25.10
2018-07-12T13:20:23.862Z,24.80
2018-07-12T13:22:52.349Z,24.30
2018-07-12T13:25:20.998Z,24.10
2018-07-12T13:27:49.719Z,24.30
2018-07-12T13:30:18.516Z,24.60
2018-07-12T13:32:46.951Z,24.70
2018-07-12T13:35:15.465Z,24.40
2018-07-12T13:37:43.917Z,25.10
2018-07-12T13:40:12.488Z,25.60
2018-07-12T13:42:40.965Z,26.30
2018-07-12T13:45:09.416Z,25.90
2018-07-12T13:47:37.866Z,25.60
2018-07-12T13:50:06.708Z,25.40
2018-07-12T13:52:35.152Z,25.30
2018-07-12T13:55:03.615Z,25.40
2018-07-12T13:57:32.095Z,25.50
2018-07-12T14:00:00.534Z,25.00
2018-07-12T14:02:28.996Z,24.70
2018-07-12T14:04:57.452Z,24.20
2018-07-12T14:07:26.184Z,23.80
2018-07-12T14:09:54.634Z,23.70
2018-07-12T14:12:23.064Z,23.60
2018-07-12T14:14:51.563Z,24.00
2018-07-12T14:17:20.106Z,24.50
2018-07-12T14:19:48.533Z,25.00
2018-07-12T14:22:17.049Z,25.10
2018-07-12T14:24:45.514Z,25.50
2018-07-12T14:27:14.028Z,26.10
2018-07-12T14:29:42.743Z,26.30
2018-07-12T14:32:11.291Z,26.00
2018-07-12T14:34:39.775Z,26.00
2018-07-12T14:37:08.269Z,26.10
2018-07-12T14:39:36.734Z,25.60
2018-07-12T14:42:05.172Z,25.00
2018-07-12T14:44:33.614Z,24.70
2018-07-12T14:47:02.129Z,24.40
2018-07-12T14:49:30.746Z,24.30
2018-07-12T14:51:59.194Z,24.00
2018-07-12T14:54:27.765Z,23.70
2018-07-12T14:56:56.348Z,23.40
2018-07-12T14:59:24.769Z,23.20
2018-07-12T15:01:53.263Z,23.10
2018-07-12T15:04:21.738Z,23.00
2018-07-12T15:06:50.235Z,23.00
2018-07-12T15:09:18.872Z,23.10
2018-07-12T15:11:47.377Z,23.20
2018-07-12T15:14:15.887Z,23.30
2018-07-12T15:16:44.446Z,23.50
2018-07-12T15:19:13.132Z,23.40
2018-07-12T15:21:41.746Z,23.30
2018-07-12T15:24:10.191Z,23.40
2018-07-12T15:26:38.640Z,23.30
2018-07-12T15:29:07.090Z,23.50
2018-07-12T15:31:35.620Z,23.50
2018-07-12T15:34:04.235Z,23.40
2018-07-12T15:36:32.695Z,23.50
2018-07-12T15:39:01.160Z,23.50
2018-07-12T15:41:29.624Z,23.40
2018-07-12T15:43:58.113Z,23.40
2018-07-12T15:46:26.723Z,23.60
2018-07-12T15:48:55.260Z,23.90
2018-07-12T15:51:23.917Z,23.90
2018-07-12T15:53:52.360Z,23.90
2018-07-12T15:56:20.792Z,23.90
2018-07-12T15:58:49.400Z,23.80
2018-07-12T16:01:17.807Z,23.80
2018-07-12T16:03:46.360Z,24.00
2018-07-12T16:06:14.839Z,24.00
2018-07-12T16:08:43.260Z,24.00
2018-07-12T16:11:11.763Z,24.20
2018-07-12T16:13:40.203Z,24.40
2018-07-12T16:16:08.654Z,24.50
2018-07-12T16:18:37.107Z,24.50
2018-07-12T16:21:06.250Z,24.40
2018-07-12T16:23:34.709Z,24.20
2018-07-12T16:26:03.548Z,24.30
2018-07-12T16:28:32.012Z,24.30
2018-07-12T16:31:01.272Z,24.40
2018-07-12T16:33:29.722Z,24.40
2018-07-12T16:35:58.581Z,24.40
2018-07-12T16:38:27.095Z,24.60
2018-07-12T16:40:55.525Z,24.80
2018-07-12T16:43:24.031Z,24.90
2018-07-12T16:45:52.465Z,24.90
2018-07-12T16:48:20.906Z,25.00
2018-07-12T16:50:49.340Z,25.00
2018-07-12T16:53:17.807Z,25.10
2018-07-12T16:55:46.353Z,25.10
2018-07-12T16:58:14.824Z,25.10
2018-07-12T17:00:43.286Z,24.80
2018-07-12T17:03:11.904Z,24.80
2018-07-12T17:05:40.413Z,24.50
2018-07-12T17:08:09.203Z,24.30
2018-07-12T17:10:37.642Z,24.20
2018-07-12T17:13:06.147Z,24.10
2018-07-12T17:15:34.602Z,24.00
2018-07-12T17:18:03.096Z,24.10
2018-07-12T17:20:31.588Z,24.10
2018-07-12T17:23:00.006Z,24.20
2018-07-12T17:25:28.655Z,24.00
2018-07-12T17:27:57.107Z,23.90
2018-07-12T17:30:25.571Z,23.70
2018-07-12T17:32:54.104Z,23.70
2018-07-12T17:35:22.539Z,23.70
2018-07-12T17:37:51.053Z,23.70
2018-07-12T17:40:19.634Z,23.70
2018-07-12T17:42:48.115Z,23.70
2018-07-12T17:45:16.568Z,23.70
2018-07-12T17:47:45.079Z,23.70
2018-07-12T17:50:13.717Z,23.70
2018-07-12T17:52:42.227Z,23.60
2018-07-12T17:55:10.662Z,23.50
2018-07-12T17:57:39.191Z,23.50
2018-07-12T18:00:07.656Z,23.50
2018-07-12T18:02:36.192Z,23.40
2018-07-12T18:05:04.729Z,23.30
2018-07-12T18:07:33.727Z,23.20
2018-07-12T18:10:02.206Z,23.20
2018-07-12T18:12:30.654Z,23.20
2018-07-12T18:14:59.130Z,23.10
2018-07-12T18:17:27.551Z,23.00
2018-07-12T18:19:56.000Z,23.00
2018-07-12T18:22:24.436Z,23.00
2018-07-12T18:24:52.860Z,22.90
2018-07-12T18:27:21.350Z,22.90
2018-07-12T18:29:49.850Z,22.80
2018-07-12T18:32:18.684Z,22.80
2018-07-12T18:34:47.141Z,22.80
2018-07-12T18:37:15.600Z,22.70
2018-07-12T18:39:44.048Z,22.70
2018-07-12T18:42:12.528Z,22.70
2018-07-12T18:44:41.097Z,22.70
2018-07-12T18:47:09.565Z,22.70
2018-07-12T18:49:38.032Z,22.70
2018-07-12T18:52:06.551Z,22.70
2018-07-12T18:54:35.031Z,22.60
2018-07-12T18:57:03.826Z,22.60
2018-07-12T18:59:32.335Z,22.60
2018-07-12T19:02:01.031Z,22.50
2018-07-12T19:04:29.759Z,22.40
2018-07-12T19:06:58.451Z,22.40
2018-07-12T19:09:26.951Z,22.30
2018-07-12T19:11:55.483Z,22.40
2018-07-12T19:14:23.948Z,22.30
2018-07-12T19:16:52.449Z,22.20
2018-07-12T19:19:20.881Z,22.20
2018-07-12T19:21:49.343Z,22.20
2018-07-12T19:24:17.806Z,22.20
2018-07-12T19:26:46.316Z,22.20
2018-07-12T19:29:14.796Z,22.10
2018-07-12T19:31:43.249Z,22.10
2018-07-12T19:34:11.690Z,22.10
2018-07-12T19:36:40.494Z,22.00
2018-07-12T19:39:09.349Z,22.00
2018-07-12T19:41:38.040Z,21.90
2018-07-12T19:44:06.618Z,21.80
2018-07-12T19:46:35.088Z,21.50
2018-07-12T19:49:03.803Z,21.30
2018-07-12T19:51:32.292Z,21.10
2018-07-12T19:54:00.752Z,21.00
2018-07-12T19:56:29.190Z,20.80
2018-07-12T19:58:57.680Z,20.70
2018-07-12T20:01:26.207Z,20.50
2018-07-12T20:03:54.914Z,20.40
2018-07-12T20:06:23.513Z,20.30
2018-07-12T20:08:51.956Z,20.20
2018-07-12T20:11:20.441Z,20.10
2018-07-12T20:13:49.160Z,20.00
2018-07-12T20:16:17.593Z,19.90
2018-07-12T20:18:46.083Z,19.90
2018-07-12T20:21:14.958Z,19.80
2018-07-12T20:23:43.471Z,19.80
2018-07-12T20:26:12.000Z,19.90
2018-07-12T20:28:40.667Z,20.00
2018-07-12T20:31:09.184Z,20.00
2018-07-12T20:33:37.915Z,20.00
2018-07-12T20:36:08.180Z,20.10
2018-07-12T20:38:36.734Z,20.20
2018-07-12T20:41:05.276Z,20.30
2018-07-12T20:45:02.975Z,20.40
2018-07-12T20:47:31.519Z,20.40
2018-07-12T20:50:00.223Z,20.40
2018-07-12T20:52:28.718Z,20.40
2018-07-12T20:54:57.360Z,20.30
2018-07-12T20:57:25.837Z,20.30
2018-07-12T20:59:54.287Z,20.20
2018-07-12T21:02:22.767Z,20.20
2018-07-12T21:04:51.217Z,20.10
2018-07-12T21:07:19.680Z,20.10
2018-07-12T21:09:48.417Z,20.00
2018-07-12T21:12:16.852Z,20.00
2018-07-12T21:14:45.286Z,19.90
2018-07-12T21:17:13.802Z,19.90
2018-07-12T21:19:42.276Z,19.80
2018-07-12T21:22:10.698Z,19.80
2018-07-12T21:24:39.251Z,19.70
2018-07-12T21:27:07.691Z,19.70
2018-07-12T21:29:36.165Z,19.70
2018-07-12T21:32:04.650Z,19.70
2018-07-12T21:34:33.130Z,19.70
2018-07-12T21:37:01.695Z,19.60
2018-07-12T21:39:30.176Z,19.60
2018-07-12T21:41:58.752Z,19.50
2018-07-12T21:44:27.243Z,19.50
2018-07-12T21:46:55.845Z,19.30
2018-07-12T21:49:24.296Z,19.30
2018-07-12T21:51:52.806Z,19.30
2018-07-12T21:54:21.428Z,19.30
2018-07-12T21:56:49.959Z,19.30
2018-07-12T21:59:18.392Z,19.30
2018-07-12T22:01:47.712Z,19.30
2018-07-12T22:04:16.261Z,19.30
2018-07-12T22:08:07.260Z,19.30
2018-07-12T22:10:35.705Z,19.20
2018-07-12T22:13:04.159Z,19.10
2018-07-12T22:15:32.655Z,18.90
2018-07-12T22:18:01.189Z,18.80
2018-07-12T22:20:30.004Z,18.70
2018-07-12T22:22:58.497Z,18.60
2018-07-12T22:25:26.913Z,18.60
2018-07-12T22:27:55.352Z,18.50
2018-07-12T22:30:23.868Z,18.40
2018-07-12T22:32:52.496Z,18.30
2018-07-12T22:35:20.951Z,18.20
2018-07-12T22:37:49.435Z,18.10
2018-07-12T22:40:17.956Z,18.00
2018-07-12T22:42:46.471Z,17.90
2018-07-12T22:45:14.991Z,17.80
2018-07-12T22:47:43.442Z,17.70
2018-07-12T22:50:11.919Z,17.60
2018-07-12T22:52:40.339Z,17.50
2018-07-12T22:55:08.773Z,17.40
2018-07-12T22:57:37.223Z,17.30
2018-07-12T23:00:06.324Z,17.20
2018-07-12T23:02:34.729Z,17.20
2018-07-12T23:05:03.262Z,17.10
2018-07-12T23:07:31.787Z,17.10
2018-07-12T23:10:00.252Z,17.10
2018-07-12T23:12:28.866Z,17.00
2018-07-12T23:14:57.713Z,16.90
2018-07-12T23:17:26.202Z,16.90
2018-07-12T23:19:54.656Z,16.90
2018-07-12T23:22:23.195Z,16.90
2018-07-12T23:24:51.716Z,16.80
2018-07-12T23:27:20.329Z,16.70
2018-07-12T23:29:48.770Z,16.70
2018-07-12T23:32:17.260Z,16.60
2018-07-12T23:34:45.698Z,16.60
2018-07-12T23:37:14.226Z,16.40
2018-07-12T23:39:42.751Z,16.40
2018-07-12T23:42:11.245Z,16.30
2018-07-12T23:44:39.691Z,16.30
2018-07-12T23:47:08.099Z,16.20
2018-07-12T23:49:36.594Z,16.20
2018-07-12T23:52:05.161Z,16.20
2018-07-12T23:54:33.640Z,16.20
2018-07-12T23:57:02.121Z,16.20
2018-07-12T23:59:30.603Z,16.20
